Time;durP1;ratioP1;P1;durP2;ratioP2;P2;SDS_P1;SDS_P2;PMS_P1;PMS_P2;Temp;Humidity;BMP_temperature;BMP_pressure;BME280_temperature;BME280_humidity;BME280_pressure;Samples;Min_cycle;Max_cycle;Signal;HPM_P1;HPM_P2
2023/08/02 00:02:10;;;;;;;4.40;2.20;;;16.90;99.90;;;;;;5142447;28;20209;-45
2023/08/02 00:04:41;;;;;;;5.40;2.17;;;16.80;99.90;;;;;;5161011;28;20465;-44
2023/08/02 00:07:12;;;;;;;3.03;2.70;;;16.90;99.90;;;;;;5144594;28;20549;-45
2023/08/02 00:09:42;;;;;;;9.97;3.10;;;16.80;99.90;;;;;;5159993;28;20182;-44
2023/08/02 00:12:13;;;;;;;1.67;1.57;;;16.80;99.90;;;;;;5161885;28;20524;-45
2023/08/02 00:14:44;;;;;;;5.63;2.33;;;16.80;99.90;;;;;;5163195;28;20217;-44
2023/08/02 00:17:14;;;;;;;2.20;1.70;;;16.80;99.90;;;;;;5141847;28;20196;-44
2023/08/02 00:19:45;;;;;;;3.70;2.20;;;16.90;99.90;;;;;;5145459;28;20208;-44
2023/08/02 00:22:15;;;;;;;2.93;2.20;;;16.80;99.90;;;;;;5145274;28;20220;-45
2023/08/02 00:24:46;;;;;;;5.00;2.30;;;16.80;99.90;;;;;;5144547;28;20721;-44
2023/08/02 00:27:17;;;;;;;3.07;2.20;;;16.70;99.90;;;;;;5161159;28;20184;-44
2023/08/02 00:29:49;;;;;;;4.30;2.50;;;16.70;99.90;;;;;;5152279;28;20181;-45
2023/08/02 00:32:20;;;;;;;4.63;2.63;;;16.70;99.90;;;;;;5159485;28;20189;-45
2023/08/02 00:34:54;;;;;;;2.30;2.10;;;16.70;99.90;;;;;;5159457;28;20459;-46
2023/08/02 00:37:25;;;;;;;6.67;2.20;;;16.70;99.90;;;;;;5145349;28;20184;-45
2023/08/02 00:39:56;;;;;;;2.23;2.03;;;16.70;99.90;;;;;;5147161;28;20428;-43
2023/08/02 00:42:26;;;;;;;4.13;2.30;;;16.70;99.90;;;;;;5166691;28;20467;-44
2023/08/02 00:44:57;;;;;;;7.93;2.57;;;16.70;99.90;;;;;;5162419;28;20197;-44
2023/08/02 00:47:28;;;;;;;2.97;2.67;;;16.70;99.90;;;;;;5147347;28;20196;-44
2023/08/02 00:49:59;;;;;;;2.13;1.97;;;16.60;99.90;;;;;;5148045;28;20697;-45
2023/08/02 00:52:30;;;;;;;6.80;2.37;;;16.60;99.90;;;;;;5164378;28;20185;-44
2023/08/02 00:55:01;;;;;;;2.30;1.60;;;16.50;99.90;;;;;;5159341;28;20595;-45
2023/08/02 00:57:32;;;;;;;1.83;1.70;;;16.50;99.90;;;;;;5147861;28;20559;-44
2023/08/02 01:00:04;;;;;;;2.87;2.27;;;16.60;99.90;;;;;;5161100;28;20185;-45
2023/08/02 01:02:34;;;;;;;1.67;1.50;;;16.50;99.90;;;;;;5160332;28;20239;-44
2023/08/02 01:05:05;;;;;;;3.13;1.80;;;16.40;99.90;;;;;;5140531;28;20494;-45
2023/08/02 01:07:58;;;;;;;3.30;2.67;;;16.40;99.90;;;;;;5161425;28;20259;-44
2023/08/02 01:11:11;;;;;;;2.67;2.47;;;16.40;99.90;;;;;;5157489;28;20169;-45
2023/08/02 01:13:48;;;;;;;3.00;2.30;;;16.40;99.90;;;;;;5136579;28;20473;-44
2023/08/02 01:16:20;;;;;;;2.77;2.10;;;16.70;99.90;;;;;;5138705;28;20463;-44
2023/08/02 01:18:50;;;;;;;4.97;2.20;;;16.60;99.90;;;;;;5160818;28;21930;-44
2023/08/02 01:21:21;;;;;;;3.90;2.10;;;16.60;99.90;;;;;;5141159;28;20471;-44
2023/08/02 01:23:52;;;;;;;1.73;1.70;;;16.60;99.90;;;;;;5154783;28;20204;-44
2023/08/02 01:26:23;;;;;;;8.60;2.50;;;16.60;99.90;;;;;;5159106;28;20757;-44
2023/08/02 01:28:55;;;;;;;2.10;1.90;;;16.50;99.90;;;;;;5155925;28;20660;-44
2023/08/02 01:31:27;;;;;;;3.93;2.50;;;16.60;99.90;;;;;;5156937;28;20437;-45
2023/08/02 01:33:58;;;;;;;10.07;3.00;;;16.50;99.90;;;;;;5161066;28;20527;-45
2023/08/02 01:36:29;;;;;;;3.97;2.00;;;16.50;99.90;;;;;;5158995;28;20433;-44
2023/08/02 01:39:00;;;;;;;1.73;1.60;;;16.50;99.90;;;;;;5129844;28;21022;-44
2023/08/02 01:41:30;;;;;;;3.47;2.23;;;16.50;99.90;;;;;;5130175;28;20327;-46
2023/08/02 01:44:01;;;;;;;4.83;1.53;;;16.50;99.90;;;;;;5160749;28;20223;-45
2023/08/02 01:46:31;;;;;;;1.53;1.50;;;16.50;99.90;;;;;;5161191;28;20577;-45
2023/08/02 01:49:02;;;;;;;3.40;1.97;;;16.50;99.90;;;;;;5148855;28;20251;-45
2023/08/02 01:51:33;;;;;;;2.70;2.17;;;16.50;99.90;;;;;;5163271;28;20617;-45
2023/08/02 01:54:03;;;;;;;1.83;1.50;;;16.50;99.90;;;;;;5164341;28;20300;-45
2023/08/02 01:56:34;;;;;;;4.20;2.50;;;16.50;99.90;;;;;;5147945;28;20193;-45
2023/08/02 01:59:05;;;;;;;6.57;1.73;;;16.60;99.90;;;;;;5165724;28;20193;-46
2023/08/02 02:01:35;;;;;;;3.27;1.97;;;16.60;99.90;;;;;;5143749;28;20191;-44
2023/08/02 02:04:06;;;;;;;1.57;1.47;;;16.60;99.90;;;;;;5147683;28;20328;-46
2023/08/02 02:06:37;;;;;;;3.40;2.07;;;16.60;99.90;;;;;;5168905;28;20216;-46
2023/08/02 02:09:07;;;;;;;4.73;1.73;;;16.70;99.90;;;;;;5151810;28;20594;-47
2023/08/02 02:11:38;;;;;;;2.00;1.90;;;16.60;99.90;;;;;;5167236;28;20590;-44
2023/08/02 02:14:09;;;;;;;2.43;1.70;;;16.60;99.90;;;;;;5148997;28;20693;-45
2023/08/02 02:16:39;;;;;;;1.60;1.50;;;16.70;99.90;;;;;;5135870;28;20181;-43
2023/08/02 02:19:10;;;;;;;1.77;1.47;;;16.70;99.90;;;;;;5166952;28;20200;-45
2023/08/02 02:21:41;;;;;;;1.63;1.53;;;16.70;99.90;;;;;;5152199;28;20629;-44
2023/08/02 02:24:11;;;;;;;3.80;1.90;;;16.70;99.90;;;;;;5150481;28;20291;-44
2023/08/02 02:26:42;;;;;;;9.23;2.00;;;16.90;99.90;;;;;;5164922;28;20240;-45
2023/08/02 02:29:13;;;;;;;2.07;1.70;;;16.70;99.90;;;;;;5160176;28;20200;-45
2023/08/02 02:31:43;;;;;;;3.23;1.20;;;16.70;99.90;;;;;;5133665;28;20297;-44
2023/08/02 02:34:14;;;;;;;4.43;2.37;;;16.70;99.90;;;;;;5161663;28;20732;-44
2023/08/02 02:36:46;;;;;;;2.70;1.93;;;16.70;99.90;;;;;;5164802;28;20181;-45
2023/08/02 02:39:16;;;;;;;5.53;1.97;;;16.80;99.90;;;;;;5149343;28;20235;-45
2023/08/02 02:41:47;;;;;;;2.23;2.13;;;16.70;99.90;;;;;;5149377;28;21028;-45
2023/08/02 02:44:17;;;;;;;3.53;2.47;;;16.70;99.90;;;;;;5166267;28;20209;-46
2023/08/02 02:46:48;;;;;;;1.80;1.70;;;16.70;99.90;;;;;;5160961;28;20185;-44
2023/08/02 02:49:18;;;;;;;2.00;1.80;;;16.80;99.90;;;;;;5129060;28;20563;-46
2023/08/02 02:51:49;;;;;;;1.50;1.40;;;16.70;99.90;;;;;;5169704;28;20219;-45
2023/08/02 02:54:20;;;;;;;3.60;1.67;;;16.70;99.90;;;;;;5159447;28;21720;-44
2023/08/02 02:56:50;;;;;;;4.90;2.00;;;16.70;99.90;;;;;;5163564;28;20189;-46
2023/08/02 02:59:21;;;;;;;2.97;2.10;;;16.70;99.90;;;;;;5162012;28;20185;-44
2023/08/02 03:01:51;;;;;;;2.23;2.03;;;16.60;99.90;;;;;;5164437;28;20247;-45
2023/08/02 03:04:22;;;;;;;1.90;1.70;;;16.50;99.90;;;;;;5163505;28;20673;-44
2023/08/02 03:06:53;;;;;;;2.60;1.97;;;16.50;99.90;;;;;;5167368;28;20209;-44
2023/08/02 03:09:23;;;;;;;5.30;1.63;;;16.40;99.90;;;;;;5143606;28;20178;-46
2023/08/02 03:11:54;;;;;;;2.53;2.00;;;16.40;99.90;;;;;;5147857;28;20263;-44
2023/08/02 03:14:25;;;;;;;4.17;2.33;;;16.40;99.90;;;;;;5158586;23;20229;-48
2023/08/02 03:16:55;;;;;;;5.43;2.47;;;16.30;99.90;;;;;;5144842;28;20220;-47
2023/08/02 03:19:26;;;;;;;2.20;2.00;;;16.20;99.90;;;;;;5140229;28;20281;-48
2023/08/02 03:21:57;;;;;;;2.50;1.93;;;16.10;99.90;;;;;;5140952;28;20178;-46
2023/08/02 03:24:27;;;;;;;2.17;2.00;;;16.10;99.90;;;;;;5141256;28;20237;-47
2023/08/02 03:26:58;;;;;;;3.57;1.93;;;16.00;99.90;;;;;;5138978;28;20180;-47
2023/08/02 03:29:29;;;;;;;4.80;2.33;;;16.00;99.90;;;;;;5146051;28;20348;-46
2023/08/02 03:32:00;;;;;;;3.27;2.27;;;15.90;99.90;;;;;;5141002;28;20183;-47
2023/08/02 03:34:31;;;;;;;4.40;2.00;;;16.00;99.90;;;;;;5141088;28;20292;-47
2023/08/02 03:37:01;;;;;;;3.17;1.63;;;16.00;99.90;;;;;;5146043;28;20199;-48
2023/08/02 03:39:32;;;;;;;1.80;1.70;;;16.00;99.90;;;;;;5141275;28;20182;-47
2023/08/02 03:42:03;;;;;;;2.30;2.03;;;16.10;99.90;;;;;;5143760;28;20252;-48
2023/08/02 03:44:34;;;;;;;2.30;1.57;;;16.30;99.90;;;;;;5143904;28;20225;-47
2023/08/02 03:47:05;;;;;;;2.20;1.80;;;16.20;99.90;;;;;;5139534;28;20190;-47
2023/08/02 03:49:36;;;;;;;5.93;2.00;;;16.30;99.90;;;;;;5144457;28;20197;-48
2023/08/02 03:52:07;;;;;;;5.80;2.80;;;16.50;99.90;;;;;;5143519;28;20444;-46
2023/08/02 03:54:38;;;;;;;3.30;1.73;;;16.50;99.90;;;;;;5140811;28;20469;-47
2023/08/02 03:57:09;;;;;;;2.57;2.43;;;16.50;99.90;;;;;;5145265;28;20217;-48
2023/08/02 03:59:40;;;;;;;8.57;2.37;;;16.90;99.90;;;;;;5128836;28;20434;-46
2023/08/02 04:02:10;;;;;;;2.43;2.30;;;16.90;99.90;;;;;;5143590;28;20256;-47
2023/08/02 04:04:41;;;;;;;5.43;2.20;;;16.90;99.90;;;;;;5142361;28;20213;-47
2023/08/02 04:07:12;;;;;;;4.33;2.70;;;16.90;99.90;;;;;;5144233;28;20225;-48
2023/08/02 04:09:43;;;;;;;4.47;2.33;;;16.90;99.90;;;;;;5147951;28;20441;-48
2023/08/02 04:12:17;;;;;;;2.67;2.33;;;17.00;99.90;;;;;;5146745;28;20455;-47
2023/08/02 04:14:48;;;;;;;5.73;2.60;;;17.00;99.90;;;;;;5145995;28;20228;-47
2023/08/02 04:17:18;;;;;;;6.03;2.03;;;17.00;99.90;;;;;;5140011;28;20453;-47
2023/08/02 04:19:49;;;;;;;3.07;2.10;;;17.00;99.90;;;;;;5143735;28;20190;-47
2023/08/02 04:22:20;;;;;;;2.37;2.17;;;17.00;99.90;;;;;;5145973;28;20981;-47
2023/08/02 04:24:51;;;;;;;2.97;2.20;;;17.10;99.90;;;;;;5148844;28;20211;-47
2023/08/02 04:27:22;;;;;;;1.90;1.80;;;17.00;99.90;;;;;;5146065;28;20433;-46
2023/08/02 04:29:53;;;;;;;2.60;2.30;;;16.90;99.90;;;;;;5147333;28;20174;-47
2023/08/02 04:32:25;;;;;;;5.40;2.70;;;16.80;99.90;;;;;;5146338;28;20463;-47
2023/08/02 04:34:56;;;;;;;2.63;2.43;;;16.80;99.90;;;;;;5147191;28;20201;-47
2023/08/02 04:37:28;;;;;;;2.70;2.40;;;16.80;99.90;;;;;;5146755;28;20453;-48
2023/08/02 04:39:58;;;;;;;2.40;2.30;;;16.70;99.90;;;;;;5139544;28;20193;-47
2023/08/02 04:42:29;;;;;;;2.27;2.07;;;16.80;99.90;;;;;;5144395;28;20464;-47
2023/08/02 04:45:00;;;;;;;2.67;2.47;;;16.70;99.90;;;;;;5143812;28;20214;-48
2023/08/02 04:47:31;;;;;;;3.67;2.57;;;16.80;99.90;;;;;;5145558;28;20363;-47
2023/08/02 04:50:02;;;;;;;4.50;2.33;;;16.80;99.90;;;;;;5141687;28;20529;-47
2023/08/02 04:52:33;;;;;;;2.97;2.37;;;16.90;99.90;;;;;;5131433;28;20181;-47
2023/08/02 04:55:09;;;;;;;2.80;2.50;;;17.00;99.90;;;;;;5144203;28;20528;-48
2023/08/02 04:57:40;;;;;;;2.40;2.20;;;17.10;99.90;;;;;;5146127;28;20467;-47
2023/08/02 05:00:11;;;;;;;2.83;2.63;;;17.30;99.90;;;;;;5135278;28;20451;-47
2023/08/02 05:02:42;;;;;;;2.10;2.00;;;17.20;99.90;;;;;;5129655;28;21082;-47
2023/08/02 05:05:12;;;;;;;5.20;3.50;;;17.10;99.90;;;;;;5128883;28;20464;-48
2023/08/02 05:07:43;;;;;;;3.90;2.53;;;17.20;99.90;;;;;;5132505;28;20781;-48
2023/08/02 05:10:14;;;;;;;2.47;2.27;;;17.30;99.90;;;;;;5139491;28;20201;-49
2023/08/02 05:12:45;;;;;;;2.63;2.43;;;17.30;99.90;;;;;;5136438;28;20581;-48
2023/08/02 05:15:15;;;;;;;1.90;1.80;;;17.40;99.90;;;;;;5142416;28;20225;-47
2023/08/02 05:17:46;;;;;;;2.37;2.27;;;17.30;99.90;;;;;;5132989;28;20274;-50
2023/08/02 05:20:17;;;;;;;3.90;2.53;;;17.50;99.90;;;;;;5137988;28;20710;-46
2023/08/02 05:22:49;;;;;;;4.73;2.93;;;17.50;99.90;;;;;;5138520;28;20547;-49
2023/08/02 05:25:20;;;;;;;3.90;2.70;;;17.40;99.90;;;;;;5143399;28;20198;-47
2023/08/02 05:27:50;;;;;;;2.77;2.40;;;17.70;99.90;;;;;;5146371;28;20545;-48
2023/08/02 05:30:21;;;;;;;2.30;2.20;;;17.80;99.90;;;;;;5141830;28;20562;-47
2023/08/02 05:32:52;;;;;;;2.30;2.10;;;17.70;99.90;;;;;;5141155;28;20597;-49
2023/08/02 05:35:24;;;;;;;3.30;2.60;;;17.70;99.90;;;;;;5140273;28;20207;-48
2023/08/02 05:37:55;;;;;;;5.77;2.80;;;17.80;99.90;;;;;;5138153;28;20191;-48
2023/08/02 05:40:26;;;;;;;5.13;2.90;;;17.80;99.90;;;;;;5148015;28;21067;-49
2023/08/02 05:42:57;;;;;;;10.20;2.87;;;18.00;99.90;;;;;;5147048;28;20452;-47
2023/08/02 05:45:27;;;;;;;3.20;2.10;;;18.10;99.90;;;;;;5146756;28;20633;-47
2023/08/02 05:47:58;;;;;;;7.90;2.63;;;18.10;99.90;;;;;;5134228;28;20298;-48
2023/08/02 05:50:31;;;;;;;4.20;2.13;;;18.30;99.90;;;;;;5142699;28;20186;-49
2023/08/02 05:53:04;;;;;;;4.87;2.90;;;18.60;99.90;;;;;;5142681;28;20193;-49
2023/08/02 05:55:35;;;;;;;6.47;2.53;;;18.90;99.90;;;;;;5146941;28;20945;-48
2023/08/02 05:58:05;;;;;;;11.03;2.00;;;19.60;99.90;;;;;;5148765;28;20436;-48
2023/08/02 06:00:36;;;;;;;7.20;2.37;;;19.90;99.90;;;;;;5148778;28;20203;-47
2023/08/02 06:03:07;;;;;;;5.10;2.60;;;20.20;99.90;;;;;;5148449;28;20197;-48
2023/08/02 06:05:38;;;;;;;3.20;2.60;;;20.10;99.90;;;;;;5144479;28;20206;-47
2023/08/02 06:08:08;;;;;;;1.57;1.47;;;20.10;99.90;;;;;;5146615;28;20178;-47
2023/08/02 06:10:39;;;;;;;2.17;1.90;;;20.60;99.90;;;;;;5143764;28;20213;-50
2023/08/02 06:13:10;;;;;;;2.63;1.77;;;22.00;99.90;;;;;;5149233;28;20251;-47
2023/08/02 06:15:40;;;;;;;2.13;1.80;;;25.20;99.90;;;;;;5145955;28;20224;-48
2023/08/02 06:18:11;;;;;;;7.03;2.00;;;26.90;93.10;;;;;;5145405;28;20221;-48
2023/08/02 06:20:42;;;;;;;3.23;2.20;;;26.50;88.10;;;;;;5142529;28;20186;-49
2023/08/02 06:23:12;;;;;;;2.63;2.20;;;25.40;89.00;;;;;;5144933;28;20236;-48
2023/08/02 06:25:43;;;;;;;1.77;1.70;;;24.20;90.80;;;;;;5145501;28;20189;-49
2023/08/02 06:28:14;;;;;;;7.67;2.30;;;23.40;93.40;;;;;;5144993;28;20186;-48
2023/08/02 06:30:45;;;;;;;4.33;2.20;;;23.30;94.90;;;;;;5146128;28;20278;-48
2023/08/02 06:33:15;;;;;;;2.10;1.80;;;23.40;94.40;;;;;;5128594;28;20504;-48
2023/08/02 06:35:46;;;;;;;1.50;1.50;;;24.40;93.30;;;;;;5131348;28;20306;-47
2023/08/02 06:38:17;;;;;;;4.43;1.57;;;25.90;91.50;;;;;;5141916;28;20186;-48
2023/08/02 06:40:48;;;;;;;3.40;1.90;;;27.90;81.40;;;;;;5143366;28;20182;-48
2023/08/02 06:43:18;;;;;;;6.77;1.90;;;29.10;71.00;;;;;;5158825;28;20301;-49
2023/08/02 06:45:49;;;;;;;1.37;1.27;;;30.60;60.60;;;;;;5143412;28;20662;-49
2023/08/02 06:48:23;;;;;;;5.67;1.47;;;31.00;58.00;;;;;;5141387;28;20189;-48
2023/08/02 06:50:54;;;;;;;3.20;1.80;;;30.60;56.20;;;;;;5140442;28;20174;-48
2023/08/02 06:53:25;;;;;;;1.70;1.60;;;30.70;55.50;;;;;;5142437;28;20429;-47
2023/08/02 06:55:57;;;;;;;4.63;1.73;;;30.10;54.90;;;;;;5144612;28;20440;-48
2023/08/02 06:58:28;;;;;;;2.77;1.80;;;30.70;54.40;;;;;;5135597;28;20245;-48
2023/08/02 07:00:59;;;;;;;1.90;1.50;;;32.70;51.00;;;;;;5128977;28;20461;-48
2023/08/02 07:03:30;;;;;;;1.40;1.40;;;34.30;46.90;;;;;;5129284;28;20472;-49
2023/08/02 07:06:08;;;;;;;1.50;1.40;;;35.60;43.90;;;;;;5138074;28;20181;-50
2023/08/02 07:08:40;;;;;;;1.67;1.57;;;36.00;41.60;;;;;;5129346;28;20198;-49
2023/08/02 07:11:11;;;;;;;1.40;1.30;;;36.00;40.40;;;;;;5140535;28;20249;-48
2023/08/02 07:13:44;;;;;;;4.15;1.85;;;36.10;38.30;;;;;;5139746;28;20365;-48
2023/08/02 07:16:14;;;;;;;2.30;1.30;;;36.00;38.90;;;;;;5143988;28;20268;-47
2023/08/02 07:18:45;;;;;;;2.05;1.80;;;36.60;38.70;;;;;;5137618;28;20281;-48
2023/08/02 07:21:16;;;;;;;7.22;1.65;;;36.90;36.20;;;;;;5133780;28;20276;-48
2023/08/02 07:23:46;;;;;;;21.08;3.08;;;37.60;35.70;;;;;;5138546;28;20212;-49
2023/08/02 07:26:17;;;;;;;3.13;1.35;;;38.20;34.40;;;;;;5139420;28;20272;-48
2023/08/02 07:28:48;;;;;;;4.38;1.90;;;38.00;34.30;;;;;;5137836;28;20190;-48
2023/08/02 07:31:19;;;;;;;1.95;1.30;;;37.40;34.60;;;;;;5137459;28;20181;-49
2023/08/02 07:33:49;;;;;;;1.98;1.77;;;37.40;33.60;;;;;;5131957;28;20209;-47
2023/08/02 07:36:20;;;;;;;1.95;1.80;;;37.90;33.50;;;;;;5140449;28;20284;-49
2023/08/02 07:38:51;;;;;;;2.15;1.42;;;38.60;33.30;;;;;;5135797;28;20192;-47
2023/08/02 07:41:21;;;;;;;1.58;1.48;;;39.10;31.70;;;;;;5134082;28;20228;-49
2023/08/02 07:43:52;;;;;;;2.90;1.40;;;39.30;31.40;;;;;;5136580;28;20596;-48
2023/08/02 07:46:23;;;;;;;1.10;1.10;;;38.60;31.20;;;;;;5137136;28;20177;-48
2023/08/02 07:48:55;;;;;;;2.35;1.80;;;37.80;32.10;;;;;;5135009;28;20191;-49
2023/08/02 07:51:25;;;;;;;4.00;2.10;;;37.00;32.60;;;;;;5143364;28;20173;-49
2023/08/02 07:53:56;;;;;;;1.98;1.40;;;36.10;34.40;;;;;;5139179;28;20215;-47
2023/08/02 07:56:27;;;;;;;3.80;1.92;;;35.70;34.60;;;;;;5145245;28;20189;-50
2023/08/02 07:58:57;;;;;;;3.22;1.50;;;36.00;34.40;;;;;;5137523;28;20264;-48
2023/08/02 08:01:28;;;;;;;1.00;1.00;;;35.90;34.00;;;;;;5131298;28;20682;-53
2023/08/02 08:03:59;;;;;;;1.48;1.48;;;35.50;34.60;;;;;;5134881;28;20224;-48
2023/08/02 08:06:30;;;;;;;5.55;1.25;;;34.90;36.00;;;;;;5140941;28;20642;-50
2023/08/02 08:09:00;;;;;;;1.70;1.60;;;33.70;36.70;;;;;;5138973;28;20553;-49
2023/08/02 08:11:31;;;;;;;2.10;1.40;;;32.40;38.90;;;;;;5146673;28;20204;-47
2023/08/02 08:14:02;;;;;;;6.23;1.70;;;32.90;38.80;;;;;;5138404;28;20719;-49
2023/08/02 08:16:33;;;;;;;1.37;1.30;;;32.80;39.00;;;;;;5143541;28;20181;-46
2023/08/02 08:19:04;;;;;;;1.27;1.27;;;33.10;38.20;;;;;;5135323;28;20200;-49
2023/08/02 08:21:34;;;;;;;3.20;1.60;;;34.30;37.00;;;;;;5133951;28;20197;-49
2023/08/02 08:24:06;;;;;;;3.00;1.37;;;35.40;35.00;;;;;;5140458;28;20240;-48
2023/08/02 08:26:37;;;;;;;1.03;1.00;;;34.90;34.90;;;;;;5138222;28;20482;-48
2023/08/02 08:29:08;;;;;;;1.93;1.73;;;34.30;35.20;;;;;;5128813;28;20281;-49
2023/08/02 08:31:38;;;;;;;2.37;1.63;;;34.20;35.90;;;;;;5143987;28;20577;-49
2023/08/02 08:34:10;;;;;;;1.80;1.30;;;34.60;35.30;;;;;;5136644;28;20679;-48
2023/08/02 08:36:40;;;;;;;4.30;1.60;;;35.10;35.00;;;;;;5135360;28;20676;-48
2023/08/02 08:39:11;;;;;;;1.43;1.33;;;34.60;36.30;;;;;;5143655;28;20185;-48
2023/08/02 08:41:42;;;;;;;10.60;1.50;;;34.80;34.40;;;;;;5149452;28;20744;-48
2023/08/02 08:44:12;;;;;;;5.50;1.60;;;34.90;34.50;;;;;;5131247;28;20221;-47
2023/08/02 08:46:44;;;;;;;2.80;1.20;;;34.00;35.80;;;;;;5150392;28;20650;-49
2023/08/02 08:49:15;;;;;;;2.83;1.10;;;34.30;36.00;;;;;;5149588;28;20236;-47
2023/08/02 08:51:52;;;;;;;2.10;1.20;;;32.90;36.40;;;;;;5139140;28;20441;-48
2023/08/02 08:54:27;;;;;;;4.73;2.20;;;32.50;37.70;;;;;;5144161;28;20200;-49
2023/08/02 08:56:58;;;;;;;3.97;1.23;;;31.70;38.70;;;;;;5131240;28;20453;-48
2023/08/02 08:59:29;;;;;;;2.00;1.43;;;30.30;40.60;;;;;;5125107;28;20491;-48
2023/08/02 09:02:01;;;;;;;2.10;1.53;;;28.80;42.50;;;;;;5125641;28;20437;-50
2023/08/02 09:04:33;;;;;;;2.10;1.50;;;28.00;44.00;;;;;;5133785;28;20804;-47
2023/08/02 09:07:04;;;;;;;1.70;1.27;;;27.30;45.70;;;;;;5139558;28;20507;-49
2023/08/02 09:09:35;;;;;;;1.57;1.47;;;26.80;46.70;;;;;;5134907;28;20874;-47
2023/08/02 09:12:06;;;;;;;1.27;1.17;;;26.30;47.00;;;;;;5132416;28;20185;-49
2023/08/02 09:14:38;;;;;;;1.93;0.90;;;25.90;47.60;;;;;;5147682;23;20510;-49
2023/08/02 09:17:08;;;;;;;3.07;1.47;;;25.50;48.00;;;;;;5157413;28;20185;-50
2023/08/02 09:19:40;;;;;;;1.40;1.10;;;25.20;49.30;;;;;;5157759;28;20443;-48
2023/08/02 09:22:13;;;;;;;1.40;0.80;;;25.10;49.90;;;;;;5141309;28;20189;-47
2023/08/02 09:24:45;;;;;;;1.70;1.33;;;25.10;49.90;;;;;;5160900;28;21046;-48
2023/08/02 09:27:19;;;;;;;1.47;1.47;;;25.50;50.20;;;;;;5159838;28;20835;-49
2023/08/02 09:29:51;;;;;;;4.50;1.50;;;25.70;49.60;;;;;;5161796;28;20436;-48
2023/08/02 09:32:24;;;;;;;1.17;1.07;;;25.70;49.50;;;;;;5157064;28;20444;-48
2023/08/02 09:34:57;;;;;;;3.13;1.07;;;25.60;48.60;;;;;;5156198;28;20460;-49
2023/08/02 09:37:36;;;;;;;1.97;1.13;;;25.60;49.10;;;;;;5139037;28;20436;-49
2023/08/02 09:40:09;;;;;;;1.07;1.00;;;25.40;49.20;;;;;;5158288;28;20447;-48
2023/08/02 09:42:40;;;;;;;1.23;1.13;;;25.10;49.30;;;;;;5141403;28;21051;-50
2023/08/02 09:45:13;;;;;;;1.07;1.07;;;25.10;50.00;;;;;;5157382;28;20456;-47
2023/08/02 09:47:51;;;;;;;6.23;1.23;;;25.00;49.90;;;;;;5155300;28;20200;-49
2023/08/02 09:50:22;;;;;;;3.17;1.37;;;24.90;50.10;;;;;;5158037;28;20491;-50
2023/08/02 09:52:53;;;;;;;2.23;2.13;;;24.90;50.40;;;;;;5143923;28;20852;-50
2023/08/02 09:55:24;;;;;;;3.60;2.00;;;25.10;50.00;;;;;;5160707;28;20283;-48
2023/08/02 09:57:55;;;;;;;1.57;1.47;;;25.40;50.00;;;;;;5158044;28;20559;-50
2023/08/02 10:00:26;;;;;;;5.93;1.30;;;25.60;49.30;;;;;;5158194;28;20219;-48
2023/08/02 10:02:57;;;;;;;1.47;1.20;;;25.80;49.40;;;;;;5146566;28;20492;-49
2023/08/02 10:05:27;;;;;;;1.00;1.00;;;26.00;49.50;;;;;;5158116;28;20276;-49
2023/08/02 10:07:58;;;;;;;1.23;1.13;;;25.90;48.70;;;;;;5114870;28;20715;-49
2023/08/02 10:10:35;;;;;;;2.10;1.50;;;25.80;49.30;;;;;;5156790;28;20165;-49
2023/08/02 10:13:12;;;;;;;0.90;0.90;;;25.60;49.40;;;;;;5157540;28;20216;-48
2023/08/02 10:15:43;;;;;;;2.53;1.27;;;25.40;50.50;;;;;;5141931;28;20546;-48
2023/08/02 10:18:14;;;;;;;1.87;1.50;;;25.50;51.20;;;;;;5164631;28;20448;-50
2023/08/02 10:20:46;;;;;;;6.17;1.60;;;25.40;50.40;;;;;;5158824;28;20181;-50
2023/08/02 10:23:16;;;;;;;4.20;1.43;;;25.40;51.50;;;;;;5161457;28;20464;-49
2023/08/02 10:25:48;;;;;;;2.77;1.50;;;25.40;51.20;;;;;;5161621;28;20494;-48
2023/08/02 10:28:20;;;;;;;8.00;1.33;;;25.40;51.70;;;;;;5164181;28;20680;-47
2023/08/02 10:30:50;;;;;;;2.13;1.90;;;25.30;52.40;;;;;;5145238;28;20538;-49
2023/08/02 10:33:21;;;;;;;2.30;1.33;;;25.20;52.50;;;;;;5149695;28;20519;-49
2023/08/02 10:36:03;;;;;;;2.03;1.77;;;25.50;53.30;;;;;;5162432;28;20635;-49
2023/08/02 10:38:39;;;;;;;5.47;2.07;;;25.90;52.80;;;;;;5162368;28;20680;-50
2023/08/02 10:41:12;;;;;;;1.30;1.20;;;26.00;52.70;;;;;;5159807;28;20494;-50
2023/08/02 10:43:55;;;;;;;2.40;1.77;;;25.90;51.90;;;;;;5164457;28;20483;-49
2023/08/02 10:46:29;;;;;;;1.70;1.60;;;25.90;51.70;;;;;;5164266;28;20496;-48
2023/08/02 10:49:09;;;;;;;1.10;1.10;;;26.10;51.90;;;;;;5134280;28;20435;-51
2023/08/02 10:51:42;;;;;;;1.03;1.03;;;26.00;52.10;;;;;;5163014;28;20443;-49
2023/08/02 10:54:21;;;;;;;7.87;2.20;;;25.90;52.80;;;;;;5160711;28;20461;-49
2023/08/02 10:56:52;;;;;;;1.30;1.20;;;25.90;53.30;;;;;;5142392;28;20453;-47
2023/08/02 10:59:23;;;;;;;1.33;1.30;;;25.60;53.90;;;;;;5147435;28;20450;-52
2023/08/02 11:01:55;;;;;;;4.40;1.60;;;25.60;54.30;;;;;;5146666;28;20220;-49
2023/08/02 11:04:27;;;;;;;1.40;1.33;;;25.60;54.30;;;;;;5161177;28;20216;-50
2023/08/02 11:07:17;;;;;;;1.00;1.00;;;25.90;53.80;;;;;;5162769;28;20436;-49
2023/08/02 11:09:52;;;;;;;2.13;2.03;;;25.90;54.00;;;;;;5163738;28;20436;-50
2023/08/02 11:12:22;;;;;;;1.40;1.30;;;25.90;53.80;;;;;;5165720;28;20431;-49
2023/08/02 11:14:54;;;;;;;1.63;1.50;;;25.70;54.00;;;;;;5166794;28;20471;-48
2023/08/02 11:17:25;;;;;;;5.30;1.70;;;25.40;53.70;;;;;;5165277;28;20197;-49
2023/08/02 11:19:55;;;;;;;2.40;1.43;;;25.20;55.10;;;;;;5164710;28;20523;-47
2023/08/02 11:22:37;;;;;;;8.33;2.40;;;25.10;54.50;;;;;;5159962;28;20567;-49
2023/08/02 11:25:09;;;;;;;1.47;1.47;;;24.90;55.20;;;;;;5142790;28;20239;-49
2023/08/02 11:27:40;;;;;;;2.10;1.47;;;24.70;55.90;;;;;;5162787;28;20476;-49
2023/08/02 11:30:10;;;;;;;1.83;1.73;;;24.50;55.90;;;;;;5163812;28;20587;-48
2023/08/02 11:32:45;;;;;;;1.40;1.30;;;24.50;56.60;;;;;;5162461;28;20240;-49
2023/08/02 11:35:17;;;;;;;1.50;1.40;;;24.50;56.80;;;;;;5144049;28;20227;-49
2023/08/02 11:37:48;;;;;;;2.10;1.83;;;24.50;56.90;;;;;;5144275;28;20490;-49
2023/08/02 11:40:19;;;;;;;4.97;2.40;;;24.50;57.30;;;;;;5141581;28;20448;-50
2023/08/02 11:42:51;;;;;;;5.20;3.47;;;24.60;56.70;;;;;;5161158;28;20464;-49
2023/08/02 11:45:28;;;;;;;2.70;1.80;;;24.80;57.00;;;;;;5162437;28;20205;-49
2023/08/02 11:48:00;;;;;;;2.70;1.63;;;25.10;56.60;;;;;;5164306;28;20460;-48
2023/08/02 11:50:31;;;;;;;4.10;1.80;;;25.10;56.50;;;;;;5144036;28;20448;-50
2023/08/02 11:53:06;;;;;;;2.00;1.73;;;24.80;57.20;;;;;;5140934;28;20440;-50
2023/08/02 11:55:37;;;;;;;3.13;2.73;;;24.80;58.00;;;;;;5161625;28;20963;-48
2023/08/02 11:58:09;;;;;;;6.20;2.20;;;24.80;57.90;;;;;;5160339;28;20436;-48
2023/08/02 12:00:40;;;;;;;2.10;1.80;;;25.00;57.80;;;;;;5161247;28;20443;-52
2023/08/02 12:03:13;;;;;;;2.60;1.73;;;25.00;57.50;;;;;;5156247;28;20905;-50
2023/08/02 12:05:44;;;;;;;8.60;2.70;;;25.30;57.20;;;;;;5143451;28;20205;-49
2023/08/02 12:08:17;;;;;;;1.53;1.53;;;25.60;56.30;;;;;;5146969;28;20436;-47
2023/08/02 12:10:48;;;;;;;1.80;1.80;;;25.70;55.30;;;;;;5137797;28;20531;-50
2023/08/02 12:13:20;;;;;;;2.27;1.80;;;25.90;55.30;;;;;;5161535;28;20476;-49
2023/08/02 12:16:02;;;;;;;1.70;1.60;;;25.90;55.10;;;;;;5143689;28;20506;-50
2023/08/02 12:18:47;;;;;;;15.67;2.20;;;26.10;55.00;;;;;;5142838;28;20515;-49
2023/08/02 12:21:18;;;;;;;2.23;2.07;;;26.00;54.80;;;;;;5139422;28;20454;-50
2023/08/02 12:23:51;;;;;;;2.13;1.53;;;26.00;54.90;;;;;;5160211;28;20476;-52
2023/08/02 12:26:33;;;;;;;2.80;1.40;;;26.10;54.90;;;;;;5161934;28;20192;-49
2023/08/02 12:29:05;;;;;;;3.90;2.83;;;26.20;53.90;;;;;;5165863;28;20777;-50
2023/08/02 12:31:44;;;;;;;2.93;2.03;;;26.20;53.30;;;;;;5143711;28;20463;-48
2023/08/02 12:34:14;;;;;;;3.70;1.97;;;26.10;54.10;;;;;;5154271;28;21297;-49
2023/08/02 12:36:47;;;;;;;2.70;1.80;;;26.30;53.80;;;;;;5134405;28;20474;-50
2023/08/02 12:39:18;;;;;;;1.97;1.73;;;26.20;54.00;;;;;;5156665;28;20308;-48
2023/08/02 12:41:49;;;;;;;4.40;2.20;;;25.80;53.80;;;;;;5153192;28;20527;-50
2023/08/02 12:44:20;;;;;;;2.50;1.70;;;25.70;54.20;;;;;;5143420;28;20216;-50
2023/08/02 12:46:50;;;;;;;1.60;1.60;;;25.80;54.40;;;;;;5137873;28;20456;-51
2023/08/02 12:49:21;;;;;;;1.73;1.63;;;25.60;54.10;;;;;;5151933;28;20259;-48
2023/08/02 12:51:51;;;;;;;4.33;1.27;;;25.50;54.30;;;;;;5153404;28;20205;-50
2023/08/02 12:54:22;;;;;;;6.00;2.30;;;25.40;55.50;;;;;;5139315;28;20239;-48
2023/08/02 12:56:53;;;;;;;1.30;1.20;;;25.20;55.80;;;;;;5159122;28;20189;-50
2023/08/02 12:59:23;;;;;;;3.77;2.00;;;24.80;55.80;;;;;;5137686;28;20277;-49
2023/08/02 13:01:54;;;;;;;4.57;2.90;;;24.50;57.80;;;;;;5159730;28;20212;-49
2023/08/02 13:04:25;;;;;;;1.90;1.80;;;24.20;59.70;;;;;;5162297;28;20228;-50
2023/08/02 13:06:57;;;;;;;1.27;1.27;;;24.20;61.30;;;;;;5138236;28;20185;-49
2023/08/02 13:09:28;;;;;;;1.70;1.60;;;24.40;60.70;;;;;;5161907;28;20495;-48